sensor_id;sensor_type;location;lat;lon;timestamp;P1;durP1;ratioP1;P2;durP2;ratioP2
12441;SDS011;6285;48.804;9.220;2022-12-17T00:02:14;23.93;;;16.37;;
12441;SDS011;6285;48.804;9.220;2022-12-17T00:04:59;29.07;;;18.67;;
12441;SDS011;6285;48.804;9.220;2022-12-17T00:07:44;26.50;;;17.60;;
12441;SDS011;6285;48.804;9.220;2022-12-17T00:10:29;27.73;;;18.57;;
12441;SDS011;6285;48.804;9.220;2022-12-17T00:13:17;28.30;;;17.70;;
12441;SDS011;6285;48.804;9.220;2022-12-17T00:16:03;27.27;;;17.40;;
12441;SDS011;6285;48.804;9.220;2022-12-17T00:18:47;27.17;;;17.43;;
12441;SDS011;6285;48.804;9.220;2022-12-17T00:21:34;28.30;;;17.83;;
12441;SDS011;6285;48.804;9.220;2022-12-17T00:24:19;28.03;;;17.43;;
12441;SDS011;6285;48.804;9.220;2022-12-17T00:27:05;33.17;;;18.67;;
12441;SDS011;6285;48.804;9.220;2022-12-17T00:29:50;26.37;;;17.10;;
12441;SDS011;6285;48.804;9.220;2022-12-17T00:32:34;31.67;;;18.53;;
12441;SDS011;6285;48.804;9.220;2022-12-17T00:35:19;25.27;;;17.53;;
12441;SDS011;6285;48.804;9.220;2022-12-17T00:38:04;27.30;;;18.63;;
12441;SDS011;6285;48.804;9.220;2022-12-17T00:40:51;24.37;;;16.77;;
12441;SDS011;6285;48.804;9.220;2022-12-17T00:43:43;28.83;;;17.90;;
12441;SDS011;6285;48.804;9.220;2022-12-17T00:46:28;29.50;;;18.23;;
12441;SDS011;6285;48.804;9.220;2022-12-17T00:49:12;28.07;;;18.00;;
12441;SDS011;6285;48.804;9.220;2022-12-17T00:51:57;29.23;;;17.77;;
12441;SDS011;6285;48.804;9.220;2022-12-17T00:54:42;28.63;;;18.33;;
12441;SDS011;6285;48.804;9.220;2022-12-17T00:57:26;27.13;;;18.13;;
12441;SDS011;6285;48.804;9.220;2022-12-17T01:00:13;29.50;;;19.10;;
12441;SDS011;6285;48.804;9.220;2022-12-17T01:03:04;28.73;;;17.37;;
12441;SDS011;6285;48.804;9.220;2022-12-17T01:05:49;27.17;;;18.10;;
12441;SDS011;6285;48.804;9.220;2022-12-17T01:08:34;27.83;;;17.67;;
12441;SDS011;6285;48.804;9.220;2022-12-17T01:11:18;27.60;;;18.47;;
12441;SDS011;6285;48.804;9.220;2022-12-17T01:14:03;25.97;;;17.10;;
12441;SDS011;6285;48.804;9.220;2022-12-17T01:16:49;27.03;;;17.20;;
12441;SDS011;6285;48.804;9.220;2022-12-17T01:19:34;29.40;;;18.00;;
12441;SDS011;6285;48.804;9.220;2022-12-17T01:22:19;29.93;;;18.40;;
12441;SDS011;6285;48.804;9.220;2022-12-17T01:25:04;25.43;;;17.77;;
12441;SDS011;6285;48.804;9.220;2022-12-17T01:27:49;27.57;;;18.47;;
12441;SDS011;6285;48.804;9.220;2022-12-17T01:30:34;27.87;;;18.03;;
12441;SDS011;6285;48.804;9.220;2022-12-17T01:33:17;29.43;;;18.40;;
12441;SDS011;6285;48.804;9.220;2022-12-17T01:36:02;28.57;;;17.17;;
12441;SDS011;6285;48.804;9.220;2022-12-17T01:38:47;24.47;;;16.80;;
12441;SDS011;6285;48.804;9.220;2022-12-17T01:41:32;25.03;;;17.60;;
12441;SDS011;6285;48.804;9.220;2022-12-17T01:47:20;28.17;;;18.00;;
12441;SDS011;6285;48.804;9.220;2022-12-17T01:50:07;27.07;;;17.10;;
12441;SDS011;6285;48.804;9.220;2022-12-17T01:52:54;24.80;;;17.00;;
12441;SDS011;6285;48.804;9.220;2022-12-17T01:55:40;27.23;;;17.63;;
12441;SDS011;6285;48.804;9.220;2022-12-17T01:58:25;27.10;;;18.23;;
12441;SDS011;6285;48.804;9.220;2022-12-17T02:01:11;25.87;;;17.53;;
12441;SDS011;6285;48.804;9.220;2022-12-17T02:03:56;27.07;;;17.50;;
12441;SDS011;6285;48.804;9.220;2022-12-17T02:06:42;32.93;;;18.13;;
12441;SDS011;6285;48.804;9.220;2022-12-17T02:09:33;28.47;;;17.60;;
12441;SDS011;6285;48.804;9.220;2022-12-17T02:12:22;29.07;;;18.40;;
12441;SDS011;6285;48.804;9.220;2022-12-17T02:15:09;31.83;;;18.07;;
12441;SDS011;6285;48.804;9.220;2022-12-17T02:17:58;26.07;;;17.47;;
12441;SDS011;6285;48.804;9.220;2022-12-17T02:20:45;28.87;;;18.07;;
12441;SDS011;6285;48.804;9.220;2022-12-17T02:23:33;29.77;;;18.23;;
12441;SDS011;6285;48.804;9.220;2022-12-17T02:26:27;29.77;;;18.07;;
12441;SDS011;6285;48.804;9.220;2022-12-17T02:29:13;30.50;;;18.53;;
12441;SDS011;6285;48.804;9.220;2022-12-17T02:31:58;24.83;;;16.70;;
12441;SDS011;6285;48.804;9.220;2022-12-17T02:34:44;29.13;;;18.00;;
12441;SDS011;6285;48.804;9.220;2022-12-17T02:37:29;27.40;;;18.07;;
12441;SDS011;6285;48.804;9.220;2022-12-17T02:40:14;27.10;;;18.60;;
12441;SDS011;6285;48.804;9.220;2022-12-17T02:43:00;30.80;;;17.70;;
12441;SDS011;6285;48.804;9.220;2022-12-17T02:45:54;30.73;;;17.60;;
12441;SDS011;6285;48.804;9.220;2022-12-17T02:48:38;31.47;;;17.93;;
12441;SDS011;6285;48.804;9.220;2022-12-17T02:51:23;27.50;;;16.97;;
12441;SDS011;6285;48.804;9.220;2022-12-17T02:54:09;31.90;;;19.30;;
12441;SDS011;6285;48.804;9.220;2022-12-17T02:56:54;30.17;;;18.07;;
12441;SDS011;6285;48.804;9.220;2022-12-17T02:59:40;29.80;;;18.23;;
12441;SDS011;6285;48.804;9.220;2022-12-17T03:02:25;27.00;;;17.63;;
12441;SDS011;6285;48.804;9.220;2022-12-17T03:05:09;27.60;;;17.47;;
12441;SDS011;6285;48.804;9.220;2022-12-17T03:07:54;27.70;;;17.60;;
12441;SDS011;6285;48.804;9.220;2022-12-17T03:10:38;28.60;;;16.67;;
12441;SDS011;6285;48.804;9.220;2022-12-17T03:13:22;28.03;;;17.40;;
12441;SDS011;6285;48.804;9.220;2022-12-17T03:16:17;25.73;;;17.67;;
12441;SDS011;6285;48.804;9.220;2022-12-17T03:19:02;27.07;;;17.57;;
12441;SDS011;6285;48.804;9.220;2022-12-17T03:21:46;26.63;;;16.90;;
12441;SDS011;6285;48.804;9.220;2022-12-17T03:24:31;27.33;;;17.47;;
12441;SDS011;6285;48.804;9.220;2022-12-17T03:27:21;30.60;;;18.33;;
12441;SDS011;6285;48.804;9.220;2022-12-17T03:30:06;23.70;;;16.67;;
12441;SDS011;6285;48.804;9.220;2022-12-17T03:32:53;27.23;;;17.27;;
12441;SDS011;6285;48.804;9.220;2022-12-17T03:35:37;28.53;;;17.90;;
12441;SDS011;6285;48.804;9.220;2022-12-17T03:38:22;26.87;;;17.80;;
12441;SDS011;6285;48.804;9.220;2022-12-17T03:41:07;28.07;;;17.57;;
12441;SDS011;6285;48.804;9.220;2022-12-17T03:43:51;30.57;;;18.80;;
12441;SDS011;6285;48.804;9.220;2022-12-17T03:46:36;27.63;;;18.03;;
12441;SDS011;6285;48.804;9.220;2022-12-17T03:49:22;27.13;;;18.30;;
12441;SDS011;6285;48.804;9.220;2022-12-17T03:52:07;29.90;;;17.67;;
12441;SDS011;6285;48.804;9.220;2022-12-17T03:54:52;32.00;;;19.00;;
12441;SDS011;6285;48.804;9.220;2022-12-17T03:57:36;27.87;;;18.43;;
12441;SDS011;6285;48.804;9.220;2022-12-17T04:00:26;29.23;;;18.07;;
12441;SDS011;6285;48.804;9.220;2022-12-17T04:03:11;27.87;;;16.63;;
12441;SDS011;6285;48.804;9.220;2022-12-17T04:05:57;30.47;;;18.40;;
12441;SDS011;6285;48.804;9.220;2022-12-17T04:08:42;28.87;;;18.47;;
12441;SDS011;6285;48.804;9.220;2022-12-17T04:11:27;29.57;;;19.00;;
12441;SDS011;6285;48.804;9.220;2022-12-17T04:14:12;28.83;;;18.43;;
12441;SDS011;6285;48.804;9.220;2022-12-17T04:16:56;30.37;;;19.23;;
12441;SDS011;6285;48.804;9.220;2022-12-17T04:19:40;33.20;;;19.50;;
12441;SDS011;6285;48.804;9.220;2022-12-17T04:22:26;34.87;;;19.70;;
12441;SDS011;6285;48.804;9.220;2022-12-17T04:25:11;26.83;;;18.30;;
12441;SDS011;6285;48.804;9.220;2022-12-17T04:27:56;32.30;;;18.87;;
12441;SDS011;6285;48.804;9.220;2022-12-17T04:30:40;29.60;;;18.67;;
12441;SDS011;6285;48.804;9.220;2022-12-17T04:33:25;29.97;;;18.87;;
12441;SDS011;6285;48.804;9.220;2022-12-17T04:36:10;31.53;;;18.47;;
12441;SDS011;6285;48.804;9.220;2022-12-17T04:38:56;32.63;;;18.70;;
12441;SDS011;6285;48.804;9.220;2022-12-17T04:41:41;37.40;;;19.67;;
12441;SDS011;6285;48.804;9.220;2022-12-17T04:44:25;34.43;;;18.90;;
12441;SDS011;6285;48.804;9.220;2022-12-17T04:47:10;30.80;;;18.07;;
12441;SDS011;6285;48.804;9.220;2022-12-17T04:49:55;34.13;;;20.43;;
12441;SDS011;6285;48.804;9.220;2022-12-17T04:52:40;36.07;;;20.37;;
12441;SDS011;6285;48.804;9.220;2022-12-17T04:55:26;35.13;;;21.07;;
12441;SDS011;6285;48.804;9.220;2022-12-17T04:58:11;31.50;;;19.70;;
12441;SDS011;6285;48.804;9.220;2022-12-17T05:00:56;35.13;;;20.37;;
12441;SDS011;6285;48.804;9.220;2022-12-17T05:03:40;37.37;;;21.13;;
12441;SDS011;6285;48.804;9.220;2022-12-17T05:06:25;38.10;;;21.63;;
12441;SDS011;6285;48.804;9.220;2022-12-17T05:09:10;37.93;;;21.27;;
12441;SDS011;6285;48.804;9.220;2022-12-17T05:11:56;35.93;;;20.63;;
12441;SDS011;6285;48.804;9.220;2022-12-17T05:14:40;37.87;;;21.03;;
12441;SDS011;6285;48.804;9.220;2022-12-17T05:17:25;39.07;;;22.83;;
12441;SDS011;6285;48.804;9.220;2022-12-17T05:20:10;39.03;;;22.57;;
12441;SDS011;6285;48.804;9.220;2022-12-17T05:22:54;37.23;;;21.17;;
12441;SDS011;6285;48.804;9.220;2022-12-17T05:25:39;40.10;;;22.67;;
12441;SDS011;6285;48.804;9.220;2022-12-17T05:28:25;38.37;;;22.50;;
12441;SDS011;6285;48.804;9.220;2022-12-17T05:31:10;34.97;;;21.20;;
12441;SDS011;6285;48.804;9.220;2022-12-17T05:33:54;40.33;;;22.13;;
12441;SDS011;6285;48.804;9.220;2022-12-17T05:36:47;40.30;;;24.07;;
12441;SDS011;6285;48.804;9.220;2022-12-17T05:39:32;42.70;;;23.63;;
12441;SDS011;6285;48.804;9.220;2022-12-17T05:42:17;38.37;;;22.23;;
12441;SDS011;6285;48.804;9.220;2022-12-17T05:45:03;41.60;;;23.60;;
12441;SDS011;6285;48.804;9.220;2022-12-17T05:47:48;39.37;;;23.63;;
12441;SDS011;6285;48.804;9.220;2022-12-17T05:50:32;39.13;;;22.73;;
12441;SDS011;6285;48.804;9.220;2022-12-17T05:53:17;44.43;;;24.33;;
12441;SDS011;6285;48.804;9.220;2022-12-17T05:56:02;40.77;;;25.43;;
12441;SDS011;6285;48.804;9.220;2022-12-17T05:58:47;40.77;;;23.83;;
12441;SDS011;6285;48.804;9.220;2022-12-17T06:01:33;37.87;;;23.33;;
12441;SDS011;6285;48.804;9.220;2022-12-17T06:04:17;36.60;;;24.00;;
12441;SDS011;6285;48.804;9.220;2022-12-17T06:07:02;42.73;;;24.50;;
12441;SDS011;6285;48.804;9.220;2022-12-17T06:09:47;40.03;;;23.47;;
12441;SDS011;6285;48.804;9.220;2022-12-17T06:12:31;38.60;;;24.87;;
12441;SDS011;6285;48.804;9.220;2022-12-17T06:15:16;41.60;;;25.63;;
12441;SDS011;6285;48.804;9.220;2022-12-17T06:18:02;44.57;;;26.13;;
12441;SDS011;6285;48.804;9.220;2022-12-17T06:20:47;42.00;;;25.40;;
12441;SDS011;6285;48.804;9.220;2022-12-17T06:23:46;42.23;;;25.07;;
12441;SDS011;6285;48.804;9.220;2022-12-17T06:26:31;44.53;;;25.33;;
12441;SDS011;6285;48.804;9.220;2022-12-17T06:29:16;40.37;;;25.77;;
12441;SDS011;6285;48.804;9.220;2022-12-17T06:32:01;38.17;;;23.40;;
12441;SDS011;6285;48.804;9.220;2022-12-17T06:34:47;40.37;;;24.30;;
12441;SDS011;6285;48.804;9.220;2022-12-17T06:37:32;42.73;;;25.53;;
12441;SDS011;6285;48.804;9.220;2022-12-17T06:40:16;41.10;;;25.83;;
12441;SDS011;6285;48.804;9.220;2022-12-17T06:43:01;42.23;;;25.10;;
12441;SDS011;6285;48.804;9.220;2022-12-17T06:45:46;41.47;;;24.73;;
12441;SDS011;6285;48.804;9.220;2022-12-17T06:48:31;42.63;;;24.43;;
12441;SDS011;6285;48.804;9.220;2022-12-17T06:51:17;39.90;;;24.43;;
12441;SDS011;6285;48.804;9.220;2022-12-17T06:54:02;44.23;;;24.43;;
12441;SDS011;6285;48.804;9.220;2022-12-17T06:56:47;41.00;;;23.90;;
12441;SDS011;6285;48.804;9.220;2022-12-17T06:59:31;41.17;;;25.57;;
12441;SDS011;6285;48.804;9.220;2022-12-17T07:02:16;39.50;;;23.97;;
12441;SDS011;6285;48.804;9.220;2022-12-17T07:05:01;42.30;;;25.00;;
12441;SDS011;6285;48.804;9.220;2022-12-17T07:07:56;38.47;;;23.93;;
12441;SDS011;6285;48.804;9.220;2022-12-17T07:10:41;45.70;;;23.97;;
12441;SDS011;6285;48.804;9.220;2022-12-17T07:13:26;49.43;;;25.77;;
12441;SDS011;6285;48.804;9.220;2022-12-17T07:16:10;43.40;;;26.20;;
12441;SDS011;6285;48.804;9.220;2022-12-17T07:18:55;41.13;;;24.00;;
12441;SDS011;6285;48.804;9.220;2022-12-17T07:21:40;42.17;;;25.10;;
12441;SDS011;6285;48.804;9.220;2022-12-17T07:24:25;43.47;;;24.57;;
12441;SDS011;6285;48.804;9.220;2022-12-17T07:27:10;48.80;;;25.57;;
12441;SDS011;6285;48.804;9.220;2022-12-17T07:29:55;43.00;;;24.07;;
12441;SDS011;6285;48.804;9.220;2022-12-17T07:32:39;43.60;;;25.43;;
12441;SDS011;6285;48.804;9.220;2022-12-17T07:35:24;42.63;;;23.97;;
12441;SDS011;6285;48.804;9.220;2022-12-17T07:38:09;41.70;;;23.30;;
12441;SDS011;6285;48.804;9.220;2022-12-17T07:40:57;47.93;;;22.87;;
12441;SDS011;6285;48.804;9.220;2022-12-17T07:43:42;44.97;;;24.17;;
12441;SDS011;6285;48.804;9.220;2022-12-17T07:46:26;47.93;;;24.00;;
12441;SDS011;6285;48.804;9.220;2022-12-17T07:49:11;40.33;;;23.37;;
12441;SDS011;6285;48.804;9.220;2022-12-17T07:51:56;40.60;;;23.10;;
12441;SDS011;6285;48.804;9.220;2022-12-17T07:54:41;41.30;;;24.47;;
12441;SDS011;6285;48.804;9.220;2022-12-17T07:57:27;42.50;;;22.27;;
12441;SDS011;6285;48.804;9.220;2022-12-17T08:00:12;40.43;;;23.00;;
12441;SDS011;6285;48.804;9.220;2022-12-17T08:02:57;37.23;;;20.30;;
12441;SDS011;6285;48.804;9.220;2022-12-17T08:05:42;37.43;;;20.37;;
12441;SDS011;6285;48.804;9.220;2022-12-17T08:08:26;43.23;;;23.30;;
12441;SDS011;6285;48.804;9.220;2022-12-17T08:11:11;39.37;;;21.23;;
12441;SDS011;6285;48.804;9.220;2022-12-17T08:13:57;38.17;;;21.30;;
12441;SDS011;6285;48.804;9.220;2022-12-17T08:16:41;36.73;;;20.43;;
12441;SDS011;6285;48.804;9.220;2022-12-17T08:19:26;39.60;;;21.40;;
12441;SDS011;6285;48.804;9.220;2022-12-17T08:22:11;39.13;;;20.00;;
12441;SDS011;6285;48.804;9.220;2022-12-17T08:24:55;45.47;;;24.10;;
12441;SDS011;6285;48.804;9.220;2022-12-17T08:27:40;45.80;;;23.60;;
12441;SDS011;6285;48.804;9.220;2022-12-17T08:30:26;43.10;;;22.57;;
12441;SDS011;6285;48.804;9.220;2022-12-17T08:33:11;41.83;;;22.83;;
12441;SDS011;6285;48.804;9.220;2022-12-17T08:35:56;39.77;;;21.67;;
12441;SDS011;6285;48.804;9.220;2022-12-17T08:38:41;38.87;;;22.00;;
12441;SDS011;6285;48.804;9.220;2022-12-17T08:41:26;43.10;;;23.33;;
12441;SDS011;6285;48.804;9.220;2022-12-17T08:44:11;40.23;;;21.87;;
12441;SDS011;6285;48.804;9.220;2022-12-17T08:46:57;40.17;;;21.53;;
12441;SDS011;6285;48.804;9.220;2022-12-17T08:49:42;40.90;;;23.37;;
12441;SDS011;6285;48.804;9.220;2022-12-17T08:52:26;40.67;;;22.47;;
12441;SDS011;6285;48.804;9.220;2022-12-17T08:55:11;40.73;;;21.97;;
12441;SDS011;6285;48.804;9.220;2022-12-17T08:57:56;39.63;;;23.23;;
12441;SDS011;6285;48.804;9.220;2022-12-17T09:00:41;41.20;;;23.63;;
12441;SDS011;6285;48.804;9.220;2022-12-17T09:03:28;43.97;;;22.73;;
12441;SDS011;6285;48.804;9.220;2022-12-17T09:06:12;45.07;;;23.43;;
12441;SDS011;6285;48.804;9.220;2022-12-17T09:08:57;44.67;;;23.37;;
12441;SDS011;6285;48.804;9.220;2022-12-17T09:11:42;41.30;;;23.33;;
12441;SDS011;6285;48.804;9.220;2022-12-17T09:14:26;38.53;;;22.23;;
12441;SDS011;6285;48.804;9.220;2022-12-17T09:17:11;44.00;;;23.77;;
12441;SDS011;6285;48.804;9.220;2022-12-17T09:19:57;42.53;;;23.90;;
12441;SDS011;6285;48.804;9.220;2022-12-17T09:22:42;41.13;;;24.50;;
12441;SDS011;6285;48.804;9.220;2022-12-17T09:25:27;42.07;;;22.63;;
12441;SDS011;6285;48.804;9.220;2022-12-17T09:28:11;40.93;;;24.00;;
12441;SDS011;6285;48.804;9.220;2022-12-17T09:30:57;40.73;;;22.37;;
12441;SDS011;6285;48.804;9.220;2022-12-17T09:33:42;37.50;;;22.87;;
12441;SDS011;6285;48.804;9.220;2022-12-17T09:36:28;37.00;;;22.60;;
12441;SDS011;6285;48.804;9.220;2022-12-17T09:39:13;38.40;;;23.30;;
12441;SDS011;6285;48.804;9.220;2022-12-17T09:41:59;41.20;;;23.37;;
12441;SDS011;6285;48.804;9.220;2022-12-17T09:44:47;39.93;;;23.00;;
12441;SDS011;6285;48.804;9.220;2022-12-17T09:47:35;38.77;;;22.47;;
12441;SDS011;6285;48.804;9.220;2022-12-17T09:50:22;41.73;;;23.97;;
12441;SDS011;6285;48.804;9.220;2022-12-17T09:53:18;41.40;;;22.90;;
12441;SDS011;6285;48.804;9.220;2022-12-17T09:56:05;45.80;;;25.50;;
12441;SDS011;6285;48.804;9.220;2022-12-17T09:58:51;46.40;;;25.03;;
12441;SDS011;6285;48.804;9.220;2022-12-17T10:01:35;41.80;;;23.77;;
12441;SDS011;6285;48.804;9.220;2022-12-17T10:04:22;43.57;;;24.77;;
12441;SDS011;6285;48.804;9.220;2022-12-17T10:07:10;41.40;;;23.90;;
12441;SDS011;6285;48.804;9.220;2022-12-17T10:09:57;41.53;;;24.37;;
12441;SDS011;6285;48.804;9.220;2022-12-17T10:12:44;38.93;;;22.97;;
12441;SDS011;6285;48.804;9.220;2022-12-17T10:15:28;39.87;;;23.13;;
12441;SDS011;6285;48.804;9.220;2022-12-17T10:18:13;40.37;;;23.43;;
12441;SDS011;6285;48.804;9.220;2022-12-17T10:21:00;37.17;;;23.67;;
12441;SDS011;6285;48.804;9.220;2022-12-17T10:23:47;47.27;;;25.63;;
12441;SDS011;6285;48.804;9.220;2022-12-17T10:26:33;39.17;;;23.90;;
12441;SDS011;6285;48.804;9.220;2022-12-17T10:29:33;40.50;;;23.33;;
12441;SDS011;6285;48.804;9.220;2022-12-17T10:32:18;45.67;;;26.30;;
12441;SDS011;6285;48.804;9.220;2022-12-17T10:35:05;42.10;;;24.33;;
12441;SDS011;6285;48.804;9.220;2022-12-17T10:37:50;44.03;;;25.60;;
12441;SDS011;6285;48.804;9.220;2022-12-17T10:40:36;45.33;;;25.73;;
12441;SDS011;6285;48.804;9.220;2022-12-17T10:43:26;43.07;;;25.10;;
12441;SDS011;6285;48.804;9.220;2022-12-17T10:46:13;41.90;;;23.70;;
12441;SDS011;6285;48.804;9.220;2022-12-17T10:49:09;38.03;;;23.30;;
12441;SDS011;6285;48.804;9.220;2022-12-17T10:52:04;43.90;;;24.83;;
12441;SDS011;6285;48.804;9.220;2022-12-17T10:54:56;39.53;;;23.63;;
12441;SDS011;6285;48.804;9.220;2022-12-17T10:57:44;45.20;;;25.40;;
12441;SDS011;6285;48.804;9.220;2022-12-17T11:00:38;37.83;;;22.03;;
12441;SDS011;6285;48.804;9.220;2022-12-17T11:03:27;39.87;;;23.87;;
12441;SDS011;6285;48.804;9.220;2022-12-17T11:06:13;40.07;;;23.80;;
12441;SDS011;6285;48.804;9.220;2022-12-17T11:08:59;41.07;;;23.57;;
12441;SDS011;6285;48.804;9.220;2022-12-17T11:11:45;42.80;;;23.83;;
12441;SDS011;6285;48.804;9.220;2022-12-17T11:14:31;41.73;;;23.20;;
12441;SDS011;6285;48.804;9.220;2022-12-17T11:17:19;39.87;;;23.10;;
12441;SDS011;6285;48.804;9.220;2022-12-17T11:20:05;41.47;;;24.10;;
12441;SDS011;6285;48.804;9.220;2022-12-17T11:22:51;45.90;;;24.90;;
12441;SDS011;6285;48.804;9.220;2022-12-17T11:25:38;42.50;;;24.60;;
12441;SDS011;6285;48.804;9.220;2022-12-17T11:28:28;37.90;;;23.63;;
12441;SDS011;6285;48.804;9.220;2022-12-17T11:31:21;43.93;;;24.50;;
12441;SDS011;6285;48.804;9.220;2022-12-17T11:34:12;38.23;;;23.77;;
12441;SDS011;6285;48.804;9.220;2022-12-17T11:37:00;42.00;;;25.33;;
12441;SDS011;6285;48.804;9.220;2022-12-17T11:39:49;46.60;;;25.03;;
12441;SDS011;6285;48.804;9.220;2022-12-17T11:42:35;43.57;;;25.83;;
12441;SDS011;6285;48.804;9.220;2022-12-17T11:45:27;46.40;;;27.37;;
12441;SDS011;6285;48.804;9.220;2022-12-17T11:48:15;44.83;;;27.73;;
12441;SDS011;6285;48.804;9.220;2022-12-17T11:51:14;46.50;;;25.93;;
12441;SDS011;6285;48.804;9.220;2022-12-17T11:54:02;48.73;;;27.00;;
12441;SDS011;6285;48.804;9.220;2022-12-17T11:56:51;45.97;;;26.17;;
12441;SDS011;6285;48.804;9.220;2022-12-17T11:59:45;45.80;;;27.03;;
12441;SDS011;6285;48.804;9.220;2022-12-17T12:02:52;38.87;;;23.80;;
12441;SDS011;6285;48.804;9.220;2022-12-17T12:05:58;45.33;;;25.57;;
12441;SDS011;6285;48.804;9.220;2022-12-17T12:08:47;45.57;;;26.37;;
12441;SDS011;6285;48.804;9.220;2022-12-17T12:11:34;40.33;;;24.97;;
12441;SDS011;6285;48.804;9.220;2022-12-17T12:14:25;39.83;;;25.23;;
12441;SDS011;6285;48.804;9.220;2022-12-17T12:17:28;40.63;;;24.60;;
12441;SDS011;6285;48.804;9.220;2022-12-17T12:20:19;43.20;;;25.83;;
12441;SDS011;6285;48.804;9.220;2022-12-17T12:23:08;45.30;;;25.90;;
12441;SDS011;6285;48.804;9.220;2022-12-17T12:25:58;44.00;;;26.03;;
12441;SDS011;6285;48.804;9.220;2022-12-17T12:28:54;46.17;;;27.20;;
12441;SDS011;6285;48.804;9.220;2022-12-17T12:31:43;48.73;;;26.00;;
12441;SDS011;6285;48.804;9.220;2022-12-17T12:34:31;48.53;;;27.70;;
12441;SDS011;6285;48.804;9.220;2022-12-17T12:37:17;51.40;;;27.60;;
12441;SDS011;6285;48.804;9.220;2022-12-17T12:40:04;48.07;;;28.30;;
12441;SDS011;6285;48.804;9.220;2022-12-17T12:42:55;46.60;;;25.43;;
12441;SDS011;6285;48.804;9.220;2022-12-17T12:45:42;41.70;;;24.87;;
12441;SDS011;6285;48.804;9.220;2022-12-17T12:48:33;48.40;;;26.90;;
12441;SDS011;6285;48.804;9.220;2022-12-17T12:51:22;41.87;;;26.97;;
12441;SDS011;6285;48.804;9.220;2022-12-17T12:54:24;46.27;;;27.43;;
12441;SDS011;6285;48.804;9.220;2022-12-17T12:57:28;56.20;;;31.67;;
12441;SDS011;6285;48.804;9.220;2022-12-17T13:00:23;53.30;;;29.40;;
12441;SDS011;6285;48.804;9.220;2022-12-17T13:03:12;47.60;;;27.23;;
12441;SDS011;6285;48.804;9.220;2022-12-17T13:05:59;47.17;;;28.17;;
12441;SDS011;6285;48.804;9.220;2022-12-17T13:08:26;51.23;;;27.67;;
12441;SDS011;6285;48.804;9.220;2022-12-17T13:10:53;51.07;;;29.27;;
12441;SDS011;6285;48.804;9.220;2022-12-17T13:13:26;54.43;;;31.00;;
12441;SDS011;6285;48.804;9.220;2022-12-17T13:15:56;50.03;;;29.23;;
12441;SDS011;6285;48.804;9.220;2022-12-17T13:18:26;54.67;;;32.23;;
12441;SDS011;6285;48.804;9.220;2022-12-17T13:20:56;57.40;;;32.00;;
12441;SDS011;6285;48.804;9.220;2022-12-17T13:23:25;58.17;;;32.60;;
12441;SDS011;6285;48.804;9.220;2022-12-17T13:26:02;50.07;;;28.67;;
12441;SDS011;6285;48.804;9.220;2022-12-17T13:28:29;48.63;;;28.27;;
12441;SDS011;6285;48.804;9.220;2022-12-17T13:31:02;52.43;;;30.30;;
12441;SDS011;6285;48.804;9.220;2022-12-17T13:33:31;52.03;;;28.73;;
12441;SDS011;6285;48.804;9.220;2022-12-17T13:36:03;57.70;;;31.23;;
12441;SDS011;6285;48.804;9.220;2022-12-17T13:38:33;49.43;;;28.93;;
12441;SDS011;6285;48.804;9.220;2022-12-17T13:41:04;47.97;;;29.20;;
12441;SDS011;6285;48.804;9.220;2022-12-17T13:43:32;50.67;;;28.57;;
12441;SDS011;6285;48.804;9.220;2022-12-17T13:46:05;49.70;;;30.97;;
12441;SDS011;6285;48.804;9.220;2022-12-17T13:48:32;50.83;;;28.63;;
12441;SDS011;6285;48.804;9.220;2022-12-17T13:51:00;53.37;;;29.40;;
12441;SDS011;6285;48.804;9.220;2022-12-17T13:53:28;54.53;;;30.70;;
12441;SDS011;6285;48.804;9.220;2022-12-17T13:55:58;53.80;;;30.00;;
12441;SDS011;6285;48.804;9.220;2022-12-17T13:58:26;54.83;;;31.13;;
12441;SDS011;6285;48.804;9.220;2022-12-17T14:01:06;54.03;;;30.83;;
12441;SDS011;6285;48.804;9.220;2022-12-17T14:03:33;53.10;;;30.47;;
12441;SDS011;6285;48.804;9.220;2022-12-17T14:06:00;51.53;;;31.13;;
12441;SDS011;6285;48.804;9.220;2022-12-17T14:08:29;57.47;;;31.07;;
12441;SDS011;6285;48.804;9.220;2022-12-17T14:10:57;53.80;;;30.30;;
12441;SDS011;6285;48.804;9.220;2022-12-17T14:13:38;57.30;;;33.33;;
12441;SDS011;6285;48.804;9.220;2022-12-17T14:16:07;57.00;;;30.97;;
12441;SDS011;6285;48.804;9.220;2022-12-17T14:18:34;53.97;;;29.23;;
12441;SDS011;6285;48.804;9.220;2022-12-17T14:21:01;55.87;;;32.47;;
12441;SDS011;6285;48.804;9.220;2022-12-17T14:23:29;52.20;;;30.70;;
12441;SDS011;6285;48.804;9.220;2022-12-17T14:25:57;60.47;;;31.77;;
12441;SDS011;6285;48.804;9.220;2022-12-17T14:28:28;59.73;;;31.80;;
12441;SDS011;6285;48.804;9.220;2022-12-17T14:31:02;63.37;;;33.63;;
12441;SDS011;6285;48.804;9.220;2022-12-17T14:33:31;61.17;;;31.63;;
12441;SDS011;6285;48.804;9.220;2022-12-17T14:35:59;55.20;;;31.57;;
12441;SDS011;6285;48.804;9.220;2022-12-17T14:38:27;61.17;;;33.50;;
12441;SDS011;6285;48.804;9.220;2022-12-17T14:40:59;58.90;;;33.00;;
12441;SDS011;6285;48.804;9.220;2022-12-17T14:43:53;61.83;;;34.40;;
12441;SDS011;6285;48.804;9.220;2022-12-17T14:46:20;67.00;;;36.40;;
12441;SDS011;6285;48.804;9.220;2022-12-17T14:48:53;96.47;;;45.70;;
12441;SDS011;6285;48.804;9.220;2022-12-17T14:51:27;62.00;;;35.03;;
12441;SDS011;6285;48.804;9.220;2022-12-17T14:54:03;59.80;;;33.67;;
12441;SDS011;6285;48.804;9.220;2022-12-17T14:56:31;61.03;;;35.17;;
12441;SDS011;6285;48.804;9.220;2022-12-17T14:58:58;55.23;;;32.13;;
12441;SDS011;6285;48.804;9.220;2022-12-17T15:01:26;61.33;;;34.13;;
12441;SDS011;6285;48.804;9.220;2022-12-17T15:03:54;71.80;;;40.40;;
12441;SDS011;6285;48.804;9.220;2022-12-17T15:06:23;82.53;;;42.40;;
12441;SDS011;6285;48.804;9.220;2022-12-17T15:08:51;75.30;;;40.23;;
12441;SDS011;6285;48.804;9.220;2022-12-17T15:11:20;77.47;;;41.13;;
12441;SDS011;6285;48.804;9.220;2022-12-17T15:13:47;60.70;;;34.47;;
12441;SDS011;6285;48.804;9.220;2022-12-17T15:16:14;57.37;;;34.90;;
12441;SDS011;6285;48.804;9.220;2022-12-17T15:18:41;62.03;;;34.97;;
12441;SDS011;6285;48.804;9.220;2022-12-17T15:21:10;58.87;;;34.00;;
12441;SDS011;6285;48.804;9.220;2022-12-17T15:23:38;64.20;;;36.57;;
12441;SDS011;6285;48.804;9.220;2022-12-17T15:26:07;61.60;;;34.63;;
12441;SDS011;6285;48.804;9.220;2022-12-17T15:28:35;62.70;;;34.97;;
12441;SDS011;6285;48.804;9.220;2022-12-17T15:31:02;62.23;;;35.40;;
12441;SDS011;6285;48.804;9.220;2022-12-17T15:33:29;60.13;;;35.20;;
12441;SDS011;6285;48.804;9.220;2022-12-17T15:35:56;61.03;;;33.83;;
12441;SDS011;6285;48.804;9.220;2022-12-17T15:38:25;62.57;;;33.23;;
12441;SDS011;6285;48.804;9.220;2022-12-17T15:40:52;64.43;;;34.50;;
12441;SDS011;6285;48.804;9.220;2022-12-17T15:43:19;62.73;;;34.37;;
12441;SDS011;6285;48.804;9.220;2022-12-17T15:45:47;61.20;;;34.40;;
12441;SDS011;6285;48.804;9.220;2022-12-17T15:48:15;69.53;;;34.70;;
12441;SDS011;6285;48.804;9.220;2022-12-17T15:50:43;64.20;;;34.63;;
12441;SDS011;6285;48.804;9.220;2022-12-17T15:53:10;65.57;;;37.07;;
12441;SDS011;6285;48.804;9.220;2022-12-17T15:55:38;64.67;;;35.50;;
12441;SDS011;6285;48.804;9.220;2022-12-17T15:58:06;64.10;;;35.20;;
12441;SDS011;6285;48.804;9.220;2022-12-17T16:00:34;67.10;;;33.97;;
12441;SDS011;6285;48.804;9.220;2022-12-17T16:03:01;67.13;;;34.63;;
12441;SDS011;6285;48.804;9.220;2022-12-17T16:05:28;64.97;;;34.63;;
12441;SDS011;6285;48.804;9.220;2022-12-17T16:07:55;66.93;;;33.20;;
12441;SDS011;6285;48.804;9.220;2022-12-17T16:10:26;63.80;;;34.80;;